< < Back
Terminal Aerodrome Forecast


Current Version              Previous Versions:   1  2  3  4  5  6  7  8  9  

Terminal Aerodrome Forecast

918
FTUS42 KMLB 232100 AAA
TAFMCO
TAF AMD
KMCO 232101Z 2321/2418 20010KT P6SM VCTS FEW015 SCT025CB BKN030
      TEMPO 2321/2323 VRB20G33KT 1SM +TSRA BKN025CB BKN035
     FM240200 16003KT P6SM SCT040 BKN140
      TEMPO 2409/2412 5SM BR FEW005=



Latest METAR

027
SAUS70 KWBC 232200 RRH
MTRMCO
METAR KMCO 232153Z 33012KT 7SM -RA BKN030CB OVC070 23/23 A2999 RMK AO2
SLP155 CB SW-NW-NE MOV E P0001 T02330228


USA.gov is the U.S. government's official web portal to all federal, state and local government web resources and services.